Time;durP1;ratioP1;P1;durP2;ratioP2;P2;SDS_P1;SDS_P2;PMS_P1;PMS_P2;Temp;Humidity;BMP_temperature;BMP_pressure;BME280_temperature;BME280_humidity;BME280_pressure;Samples;Min_cycle;Max_cycle;Signal;HPM_P1;HPM_P2
2023/07/13 00:00:28;;;;;;;1.17;0.73;;;23.90;99.90;;;;;;7382296;19;20241;-76
2023/07/13 00:02:54;;;;;;;1.35;0.85;;;23.90;99.90;;;;;;7388338;19;20241;-76
2023/07/13 00:05:24;;;;;;;1.17;0.68;;;23.90;99.90;;;;;;7386307;19;20168;-76
2023/07/13 00:07:51;;;;;;;2.55;0.80;;;23.90;99.90;;;;;;7386568;19;20171;-77
2023/07/13 00:10:17;;;;;;;1.90;0.88;;;23.80;99.90;;;;;;7387676;19;20443;-76
2023/07/13 00:12:43;;;;;;;1.67;0.90;;;23.60;99.90;;;;;;7386828;19;20528;-77
2023/07/13 00:15:20;;;;;;;2.83;1.02;;;23.70;99.90;;;;;;7388256;19;20157;-76
2023/07/13 00:17:47;;;;;;;5.22;0.90;;;23.80;99.90;;;;;;7386495;19;20169;-76
2023/07/13 00:20:13;;;;;;;1.90;0.95;;;23.70;99.90;;;;;;7381680;19;20131;-76
2023/07/13 00:22:38;;;;;;;1.77;0.80;;;23.70;99.90;;;;;;7385667;19;20575;-76
2023/07/13 00:25:05;;;;;;;1.10;0.70;;;23.80;99.90;;;;;;7385646;19;20146;-76
2023/07/13 00:27:31;;;;;;;1.48;0.80;;;23.60;99.90;;;;;;7383555;19;20277;-77
2023/07/13 00:29:58;;;;;;;1.33;0.70;;;23.60;99.90;;;;;;7385968;19;20146;-76
2023/07/13 00:32:25;;;;;;;2.08;0.82;;;23.60;99.90;;;;;;7384920;19;20935;-76
2023/07/13 00:34:51;;;;;;;2.33;0.80;;;23.50;99.90;;;;;;7387646;19;20138;-76
2023/07/13 00:37:18;;;;;;;1.42;0.77;;;23.50;99.90;;;;;;7384732;19;20134;-76
2023/07/13 00:39:43;;;;;;;3.25;0.80;;;23.40;99.90;;;;;;7385015;19;20130;-76
2023/07/13 00:42:10;;;;;;;1.50;0.70;;;23.40;99.90;;;;;;7383843;19;20130;-76
2023/07/13 00:44:36;;;;;;;1.10;0.68;;;23.40;99.90;;;;;;7385381;19;20151;-77
2023/07/13 00:47:02;;;;;;;4.43;1.00;;;23.50;99.90;;;;;;7375718;19;20157;-77
2023/07/13 00:49:31;;;;;;;1.75;0.80;;;23.40;99.90;;;;;;7386060;19;20134;-77
2023/07/13 00:52:09;;;;;;;0.95;0.80;;;23.30;99.90;;;;;;7386770;19;20487;-76
2023/07/13 00:54:41;;;;;;;0.90;0.57;;;23.10;99.90;;;;;;7384890;19;20158;-77
2023/07/13 00:57:13;;;;;;;2.22;0.70;;;23.20;99.90;;;;;;7384974;19;20138;-77
2023/07/13 00:59:45;;;;;;;2.55;0.85;;;23.00;99.90;;;;;;7381506;19;20143;-76
2023/07/13 01:02:11;;;;;;;2.45;0.90;;;23.10;99.90;;;;;;7385050;19;20134;-76
2023/07/13 01:04:38;;;;;;;2.00;0.88;;;23.10;99.90;;;;;;7384876;19;20291;-76
2023/07/13 01:07:06;;;;;;;2.35;0.90;;;23.10;99.90;;;;;;7383634;19;20135;-76
2023/07/13 01:09:32;;;;;;;1.35;0.90;;;23.10;99.90;;;;;;7383247;19;20134;-77
2023/07/13 01:11:59;;;;;;;2.63;0.98;;;23.00;99.90;;;;;;7383637;19;20493;-77
2023/07/13 01:14:25;;;;;;;3.17;0.80;;;23.10;99.90;;;;;;7384353;19;20473;-75
2023/07/13 01:16:51;;;;;;;1.40;0.70;;;23.20;99.90;;;;;;7380803;19;20142;-77
2023/07/13 01:19:35;;;;;;;2.05;0.70;;;23.20;99.90;;;;;;7378147;19;20146;-76
2023/07/13 01:22:03;;;;;;;1.02;0.70;;;23.20;99.90;;;;;;7383049;19;20237;-76
2023/07/13 01:24:28;;;;;;;2.05;0.80;;;23.10;99.90;;;;;;7384359;19;20139;-76
2023/07/13 01:26:54;;;;;;;2.47;0.75;;;23.20;99.90;;;;;;7383811;19;20194;-76
2023/07/13 01:29:21;;;;;;;3.22;0.80;;;23.20;99.90;;;;;;7384256;19;20177;-76
2023/07/13 01:31:47;;;;;;;1.23;0.80;;;23.20;99.90;;;;;;7381126;19;20163;-75
2023/07/13 01:34:13;;;;;;;3.03;0.98;;;23.10;99.90;;;;;;7384283;19;20131;-76
2023/07/13 01:36:38;;;;;;;3.50;0.90;;;23.00;99.90;;;;;;7383100;19;20135;-75
2023/07/13 01:39:04;;;;;;;2.30;0.85;;;23.00;99.90;;;;;;7391212;19;20571;-77
2023/07/13 01:41:30;;;;;;;0.90;0.65;;;23.00;99.90;;;;;;7390284;19;20143;-76
2023/07/13 01:43:56;;;;;;;1.83;0.70;;;23.10;99.90;;;;;;7391426;19;20139;-76
2023/07/13 01:46:21;;;;;;;3.15;0.85;;;23.00;99.90;;;;;;7389524;19;20150;-77
2023/07/13 01:48:47;;;;;;;3.42;1.00;;;23.00;99.90;;;;;;7390215;19;20138;-76
2023/07/13 01:51:13;;;;;;;2.35;0.85;;;23.10;99.90;;;;;;7389291;19;20163;-75
2023/07/13 01:53:39;;;;;;;2.10;1.00;;;23.10;99.90;;;;;;7388975;19;20500;-76
2023/07/13 01:56:05;;;;;;;2.10;0.80;;;23.00;99.90;;;;;;7389049;19;20134;-77
2023/07/13 01:58:31;;;;;;;3.53;1.02;;;23.00;99.90;;;;;;7389341;19;20206;-76
2023/07/13 02:00:56;;;;;;;2.00;0.77;;;23.00;99.90;;;;;;7388148;19;20154;-76
2023/07/13 02:03:22;;;;;;;1.00;0.80;;;22.80;99.90;;;;;;7390817;19;20131;-76
2023/07/13 02:05:48;;;;;;;0.80;0.80;;;22.90;99.90;;;;;;7389842;19;20134;-76
2023/07/13 02:08:13;;;;;;;1.40;0.70;;;23.00;99.90;;;;;;7384301;19;20134;-76
2023/07/13 02:10:39;;;;;;;2.80;0.82;;;23.00;99.90;;;;;;7390657;19;20156;-76
2023/07/13 02:13:06;;;;;;;1.23;0.77;;;22.80;99.90;;;;;;7386997;19;20154;-76
2023/07/13 02:15:32;;;;;;;2.90;1.00;;;22.80;99.90;;;;;;7392154;19;20683;-75
2023/07/13 02:17:58;;;;;;;3.15;0.90;;;22.80;99.90;;;;;;7388113;19;20138;-76
2023/07/13 02:20:24;;;;;;;1.80;0.90;;;22.80;99.90;;;;;;7386081;19;20216;-76
2023/07/13 02:22:50;;;;;;;3.08;1.00;;;22.70;99.90;;;;;;7389267;19;20127;-76
2023/07/13 02:25:16;;;;;;;1.33;0.60;;;22.80;99.90;;;;;;7390571;19;20139;-76
2023/07/13 02:27:41;;;;;;;3.40;0.70;;;22.70;99.90;;;;;;7385727;19;20483;-74
2023/07/13 02:30:11;;;;;;;2.45;1.00;;;22.70;99.90;;;;;;7389046;19;20150;-75
2023/07/13 02:32:37;;;;;;;1.42;0.63;;;22.80;99.90;;;;;;7388936;19;20599;-75
2023/07/13 02:35:03;;;;;;;1.40;0.75;;;22.70;99.90;;;;;;7391746;19;20134;-76
2023/07/13 02:37:29;;;;;;;1.48;0.77;;;22.70;99.90;;;;;;7387396;19;20455;-76
2023/07/13 02:39:55;;;;;;;1.42;0.90;;;22.70;99.90;;;;;;7387228;19;20163;-75
2023/07/13 02:42:21;;;;;;;1.55;0.80;;;22.70;99.90;;;;;;7388190;19;20135;-76
2023/07/13 02:44:47;;;;;;;2.35;1.10;;;22.70;99.90;;;;;;7386250;19;20134;-75
2023/07/13 02:47:13;;;;;;;0.75;0.52;;;22.60;99.90;;;;;;7386013;19;20626;-76
2023/07/13 02:49:38;;;;;;;2.15;0.85;;;22.70;99.90;;;;;;7385110;19;20589;-75
2023/07/13 02:52:05;;;;;;;2.03;0.70;;;22.60;99.90;;;;;;7390153;19;20135;-75
2023/07/13 02:54:31;;;;;;;2.13;0.75;;;22.70;99.90;;;;;;7386260;19;20202;-75
2023/07/13 02:56:56;;;;;;;0.65;0.50;;;22.60;99.90;;;;;;7389584;19;20583;-75
2023/07/13 02:59:22;;;;;;;1.20;0.88;;;22.60;99.90;;;;;;7384302;19;20206;-75
2023/07/13 03:01:48;;;;;;;1.73;1.00;;;22.60;99.90;;;;;;7389661;19;20173;-76
2023/07/13 03:04:14;;;;;;;1.45;0.90;;;22.60;99.90;;;;;;7386501;19;20615;-75
2023/07/13 03:06:39;;;;;;;4.20;1.08;;;22.50;99.90;;;;;;7387047;19;20158;-76
2023/07/13 03:09:05;;;;;;;2.35;1.42;;;22.40;99.90;;;;;;7387362;19;20158;-76
2023/07/13 03:11:31;;;;;;;1.83;0.90;;;22.40;99.90;;;;;;7387210;19;20765;-75
2023/07/13 03:13:57;;;;;;;2.42;0.98;;;22.40;99.90;;;;;;7387220;19;20135;-76
2023/07/13 03:16:23;;;;;;;1.63;0.93;;;22.40;99.90;;;;;;7388155;19;20450;-75
2023/07/13 03:18:48;;;;;;;2.92;0.70;;;22.40;99.90;;;;;;7384091;19;20882;-76
2023/07/13 03:21:14;;;;;;;1.15;0.75;;;22.40;99.90;;;;;;7386850;19;20659;-76
2023/07/13 03:23:40;;;;;;;1.10;0.75;;;22.40;99.90;;;;;;7387017;19;20143;-76
2023/07/13 03:26:16;;;;;;;1.85;1.00;;;22.40;99.90;;;;;;7389812;19;20139;-76
2023/07/13 03:28:42;;;;;;;2.58;0.82;;;22.30;99.90;;;;;;7388755;19;20161;-76
2023/07/13 03:31:11;;;;;;;1.05;0.85;;;22.30;99.90;;;;;;7389546;19;20135;-76
2023/07/13 03:33:37;;;;;;;1.00;0.80;;;22.30;99.90;;;;;;7386469;19;20130;-76
2023/07/13 03:36:05;;;;;;;3.05;0.95;;;22.30;99.90;;;;;;7387447;19;20526;-76
2023/07/13 03:38:31;;;;;;;1.65;0.90;;;22.30;99.90;;;;;;7382269;19;20234;-76
2023/07/13 03:40:57;;;;;;;2.45;0.90;;;22.40;99.90;;;;;;7388306;19;20150;-76
2023/07/13 03:43:23;;;;;;;1.42;0.90;;;22.30;99.90;;;;;;7386263;19;20514;-76
2023/07/13 03:45:49;;;;;;;3.50;0.98;;;22.20;99.90;;;;;;7388831;19;20622;-76
2023/07/13 03:48:15;;;;;;;1.25;0.85;;;22.20;99.90;;;;;;7384628;19;20135;-77
2023/07/13 03:50:41;;;;;;;1.80;0.90;;;22.20;99.90;;;;;;7386355;19;20135;-76
2023/07/13 03:53:07;;;;;;;3.85;2.78;;;22.30;99.90;;;;;;7388133;19;20222;-75
2023/07/13 03:55:33;;;;;;;1.92;0.90;;;22.30;99.90;;;;;;7386971;19;20567;-76
2023/07/13 03:58:31;;;;;;;1.45;0.90;;;22.30;99.90;;;;;;7382611;19;20158;-77
2023/07/13 04:00:58;;;;;;;2.17;0.90;;;22.30;99.90;;;;;;7385007;19;20145;-76
2023/07/13 04:03:24;;;;;;;3.05;1.10;;;22.30;99.90;;;;;;7387587;19;20126;-76
2023/07/13 04:05:50;;;;;;;1.20;0.80;;;22.30;99.90;;;;;;7383680;19;20622;-76
2023/07/13 04:08:15;;;;;;;2.85;1.17;;;22.40;99.90;;;;;;7386522;19;20134;-77
2023/07/13 04:10:42;;;;;;;1.48;0.70;;;22.30;99.90;;;;;;7385310;19;20490;-75
2023/07/13 04:13:08;;;;;;;1.80;0.90;;;22.30;99.90;;;;;;7386019;19;20697;-76
2023/07/13 04:15:34;;;;;;;3.33;1.00;;;22.30;99.90;;;;;;7386611;19;20151;-76
2023/07/13 04:17:59;;;;;;;1.73;0.98;;;22.40;99.90;;;;;;7386117;19;20467;-75
2023/07/13 04:20:26;;;;;;;1.45;0.90;;;22.30;99.90;;;;;;7380322;19;20241;-76
2023/07/13 04:22:53;;;;;;;1.45;0.80;;;22.40;99.90;;;;;;7387052;19;20471;-75
2023/07/13 04:25:20;;;;;;;1.88;0.90;;;22.40;99.90;;;;;;7385407;19;20130;-75
2023/07/13 04:27:46;;;;;;;2.72;1.30;;;22.40;99.90;;;;;;7386728;19;20153;-75
2023/07/13 04:30:11;;;;;;;2.75;1.00;;;22.30;99.90;;;;;;7384629;19;20127;-77
2023/07/13 04:32:37;;;;;;;4.15;1.80;;;22.30;99.90;;;;;;7385567;19;20572;-76
2023/07/13 04:35:04;;;;;;;1.85;0.88;;;22.40;99.90;;;;;;7385496;19;20956;-76
2023/07/13 04:37:30;;;;;;;1.98;1.05;;;22.40;99.90;;;;;;7384211;19;20143;-76
2023/07/13 04:39:55;;;;;;;1.77;1.05;;;22.40;99.90;;;;;;7381784;19;20135;-77
2023/07/13 04:42:21;;;;;;;1.63;1.05;;;22.30;99.90;;;;;;7385426;19;20127;-77
2023/07/13 04:44:51;;;;;;;3.33;0.95;;;22.40;99.90;;;;;;7383254;19;20167;-76
2023/07/13 04:47:18;;;;;;;2.05;0.73;;;22.40;99.90;;;;;;7383404;19;20151;-75
2023/07/13 04:49:45;;;;;;;1.67;0.90;;;22.40;99.90;;;;;;7383403;19;20638;-76
2023/07/13 04:52:11;;;;;;;1.85;0.90;;;22.30;99.90;;;;;;7387422;19;20166;-76
2023/07/13 04:54:37;;;;;;;2.13;1.02;;;22.30;99.90;;;;;;7382837;19;20494;-76
2023/07/13 04:57:06;;;;;;;4.07;1.23;;;22.20;99.90;;;;;;7385293;19;20154;-76
2023/07/13 04:59:32;;;;;;;2.25;1.05;;;22.10;99.90;;;;;;7381080;19;20146;-76
2023/07/13 05:01:58;;;;;;;4.53;1.00;;;22.10;99.90;;;;;;7383880;19;20123;-76
2023/07/13 05:04:24;;;;;;;2.22;1.00;;;22.10;99.90;;;;;;7382681;19;20471;-75
2023/07/13 05:06:50;;;;;;;2.40;1.17;;;22.20;99.90;;;;;;7385018;19;20134;-76
2023/07/13 05:09:16;;;;;;;1.77;1.00;;;22.30;99.90;;;;;;7384543;19;20141;-75
2023/07/13 05:11:43;;;;;;;2.28;1.08;;;22.30;99.90;;;;;;7385014;19;20202;-77
2023/07/13 05:14:09;;;;;;;3.03;0.85;;;22.40;99.90;;;;;;7390053;19;20143;-75
2023/07/13 05:16:36;;;;;;;3.25;1.23;;;22.40;99.90;;;;;;7388434;19;20138;-77
2023/07/13 05:19:04;;;;;;;1.02;0.93;;;22.40;99.90;;;;;;7388485;19;20488;-76
2023/07/13 05:21:30;;;;;;;1.77;1.00;;;22.50;99.90;;;;;;7389206;19;20134;-76
2023/07/13 05:23:56;;;;;;;2.60;1.23;;;22.50;99.90;;;;;;7391731;19;20815;-76
2023/07/13 05:26:22;;;;;;;1.73;0.82;;;22.50;99.90;;;;;;7388341;19;20281;-75
2023/07/13 05:28:47;;;;;;;4.07;0.88;;;22.40;99.90;;;;;;7392183;19;20134;-76
2023/07/13 05:31:13;;;;;;;1.88;0.85;;;22.40;99.90;;;;;;7387290;19;20142;-76
2023/07/13 05:33:40;;;;;;;2.60;0.93;;;22.40;99.90;;;;;;7389272;19;20142;-77
2023/07/13 05:36:06;;;;;;;1.77;0.90;;;22.40;99.90;;;;;;7389257;19;20297;-80
2023/07/13 05:38:33;;;;;;;5.45;1.13;;;22.30;99.90;;;;;;7387293;19;20202;-77
2023/07/13 05:40:59;;;;;;;1.08;0.90;;;22.30;99.90;;;;;;7390169;19;20130;-80
2023/07/13 05:43:25;;;;;;;3.33;1.23;;;22.40;99.90;;;;;;7389153;19;20134;-77
2023/07/13 05:45:55;;;;;;;2.00;1.05;;;22.40;99.90;;;;;;7388442;19;20171;-78
2023/07/13 05:48:21;;;;;;;3.47;1.38;;;22.40;99.90;;;;;;7389695;19;20150;-77
2023/07/13 05:50:47;;;;;;;5.35;1.20;;;22.40;99.90;;;;;;7389583;19;20223;-78
2023/07/13 05:53:13;;;;;;;3.22;1.15;;;22.60;99.90;;;;;;7390067;19;20261;-77
2023/07/13 05:55:43;;;;;;;3.45;0.98;;;22.50;99.90;;;;;;7391483;19;20123;-77
2023/07/13 05:58:09;;;;;;;4.50;1.10;;;22.60;99.90;;;;;;7387173;19;20135;-77
2023/07/13 06:00:35;;;;;;;1.15;0.90;;;22.60;99.90;;;;;;7388314;19;20185;-78
2023/07/13 06:03:01;;;;;;;1.85;1.13;;;22.50;99.90;;;;;;7388414;19;20146;-77
2023/07/13 06:05:28;;;;;;;1.98;1.25;;;22.40;99.90;;;;;;7389675;19;20250;-78
2023/07/13 06:07:54;;;;;;;3.65;1.33;;;22.40;99.90;;;;;;7389557;19;20135;-77
2023/07/13 06:10:20;;;;;;;2.53;1.10;;;22.40;99.90;;;;;;7387945;19;20131;-79
2023/07/13 06:12:46;;;;;;;2.40;1.30;;;22.50;99.90;;;;;;7389973;19;20214;-78
2023/07/13 06:15:12;;;;;;;1.60;1.00;;;22.60;99.90;;;;;;7391181;19;20602;-76
2023/07/13 06:17:39;;;;;;;2.03;1.00;;;22.70;99.90;;;;;;7387140;19;20138;-77
2023/07/13 06:20:06;;;;;;;3.90;1.20;;;22.90;99.90;;;;;;7384732;19;20602;-76
2023/07/13 06:22:31;;;;;;;2.10;1.10;;;23.30;99.20;;;;;;7387839;19;20615;-75
2023/07/13 06:24:57;;;;;;;2.80;1.00;;;24.90;97.80;;;;;;7389018;19;20138;-76
2023/07/13 06:27:23;;;;;;;4.45;2.00;;;27.30;94.60;;;;;;7384383;19;20142;-78
2023/07/13 06:29:48;;;;;;;3.30;1.10;;;29.10;91.00;;;;;;7385294;19;20153;-75
2023/07/13 06:32:14;;;;;;;3.60;1.13;;;29.80;88.10;;;;;;7384735;19;20127;-75
2023/07/13 06:34:40;;;;;;;2.42;1.00;;;30.10;86.60;;;;;;7388604;19;20150;-76
2023/07/13 06:37:06;;;;;;;1.50;1.00;;;30.70;83.60;;;;;;7385750;19;20465;-78
2023/07/13 06:39:32;;;;;;;1.52;0.82;;;31.70;81.10;;;;;;7388081;19;20522;-77
2023/07/13 06:41:58;;;;;;;1.52;1.05;;;33.10;76.10;;;;;;7388440;19;20249;-77
2023/07/13 06:44:23;;;;;;;1.77;0.93;;;34.30;70.70;;;;;;7385722;19;20579;-78
2023/07/13 06:46:51;;;;;;;1.67;1.00;;;34.70;67.30;;;;;;7386359;19;20177;-78
2023/07/13 06:49:17;;;;;;;2.47;1.25;;;33.60;66.40;;;;;;7387956;19;20138;-78
2023/07/13 06:51:45;;;;;;;2.75;1.00;;;32.30;68.50;;;;;;7386981;19;20250;-77
2023/07/13 06:54:11;;;;;;;2.55;1.40;;;30.80;70.90;;;;;;7389231;19;20123;-77
2023/07/13 06:56:37;;;;;;;1.95;1.00;;;29.70;74.70;;;;;;7390695;19;20155;-78
2023/07/13 06:59:03;;;;;;;1.60;0.93;;;28.70;76.10;;;;;;7389240;19;20156;-78
2023/07/13 07:01:29;;;;;;;3.72;1.33;;;28.70;78.40;;;;;;7387763;19;20131;-79
2023/07/13 07:03:54;;;;;;;2.80;1.30;;;30.30;74.80;;;;;;7386442;19;20138;-79
2023/07/13 07:06:25;;;;;;;1.88;0.82;;;30.90;73.50;;;;;;7387390;19;20141;-79
2023/07/13 07:08:52;;;;;;;1.45;1.02;;;31.50;72.20;;;;;;7388253;19;20146;-78
2023/07/13 07:11:24;;;;;;;4.88;3.22;;;31.80;70.90;;;;;;7390709;19;20149;-79
2023/07/13 07:13:51;;;;;;;3.38;1.92;;;32.30;68.00;;;;;;7386957;19;20673;-79
2023/07/13 07:16:18;;;;;;;4.07;2.10;;;32.40;67.30;;;;;;7388340;19;20541;-79
2023/07/13 07:18:44;;;;;;;4.97;1.75;;;32.40;67.80;;;;;;7387557;19;20141;-78
2023/07/13 07:21:10;;;;;;;1.25;1.05;;;32.30;68.40;;;;;;7390581;19;20926;-79
2023/07/13 07:23:36;;;;;;;1.33;1.05;;;32.50;66.40;;;;;;7387772;19;20138;-80
2023/07/13 07:26:02;;;;;;;1.17;0.90;;;32.10;65.50;;;;;;7388076;19;20556;-79
2023/07/13 07:28:28;;;;;;;2.58;0.98;;;31.30;65.60;;;;;;7387232;19;20532;-79
2023/07/13 07:30:56;;;;;;;3.28;1.48;;;31.00;66.10;;;;;;7387789;19;20119;-78
2023/07/13 07:33:23;;;;;;;2.92;1.40;;;31.10;66.80;;;;;;7385872;19;20181;-77
2023/07/13 07:35:48;;;;;;;1.95;0.88;;;30.90;66.50;;;;;;7387638;19;20135;-78
2023/07/13 07:38:15;;;;;;;1.33;0.95;;;30.50;67.30;;;;;;7388694;19;20134;-80
2023/07/13 07:40:42;;;;;;;1.88;1.10;;;30.40;68.50;;;;;;7385463;19;20157;-80
2023/07/13 07:43:09;;;;;;;2.65;1.00;;;29.80;67.80;;;;;;7386734;19;20135;-79
2023/07/13 07:45:35;;;;;;;0.88;0.63;;;28.70;68.80;;;;;;7387859;19;20131;-79
2023/07/13 07:48:01;;;;;;;3.03;1.00;;;28.40;69.90;;;;;;7383592;19;20142;-79
2023/07/13 07:50:27;;;;;;;2.13;0.90;;;28.60;69.70;;;;;;7387913;19;20531;-78
2023/07/13 07:52:53;;;;;;;1.08;0.90;;;29.10;68.90;;;;;;7386139;19;20157;-78
2023/07/13 07:55:19;;;;;;;1.77;1.00;;;29.60;68.60;;;;;;7384257;19;20599;-77
2023/07/13 07:57:45;;;;;;;1.95;1.00;;;30.00;68.20;;;;;;7382686;19;20258;-77
2023/07/13 08:00:11;;;;;;;1.60;0.88;;;30.00;67.50;;;;;;7385004;19;20488;-77
2023/07/13 08:02:37;;;;;;;2.05;1.27;;;29.50;67.70;;;;;;7386257;19;20138;-76
2023/07/13 08:05:03;;;;;;;2.65;1.40;;;28.80;68.70;;;;;;7389223;19;20461;-77
2023/07/13 08:07:31;;;;;;;2.33;1.25;;;28.40;68.90;;;;;;7382991;19;20142;-78
2023/07/13 08:09:56;;;;;;;4.15;1.90;;;28.30;70.60;;;;;;7389699;19;20154;-77
2023/07/13 08:12:23;;;;;;;3.03;1.67;;;28.60;70.30;;;;;;7386168;19;20265;-77
2023/07/13 08:14:53;;;;;;;3.60;1.10;;;29.20;69.20;;;;;;7388003;19;20142;-77
2023/07/13 08:17:20;;;;;;;3.65;1.20;;;29.90;67.60;;;;;;7386813;19;20205;-77
2023/07/13 08:19:46;;;;;;;3.70;1.52;;;30.10;66.70;;;;;;7383883;19;20134;-76
2023/07/13 08:22:12;;;;;;;2.65;0.90;;;29.40;66.30;;;;;;7384615;19;20145;-77
2023/07/13 08:24:38;;;;;;;2.00;0.90;;;28.20;68.20;;;;;;7383606;19;20974;-78
2023/07/13 08:27:04;;;;;;;2.05;0.80;;;27.90;69.40;;;;;;7384812;19;20138;-78
2023/07/13 08:29:31;;;;;;;1.48;1.00;;;27.90;68.40;;;;;;7384674;19;20153;-78
2023/07/13 08:32:00;;;;;;;1.85;0.95;;;28.00;68.90;;;;;;7385976;19;20656;-79
2023/07/13 08:34:26;;;;;;;3.15;0.93;;;28.50;69.00;;;;;;7387274;19;20138;-79
2023/07/13 08:36:52;;;;;;;1.98;1.10;;;28.70;68.80;;;;;;7386909;19;20143;-79
2023/07/13 08:39:17;;;;;;;1.63;1.10;;;28.80;68.10;;;;;;7388420;19;20135;-78
2023/07/13 08:41:50;;;;;;;1.83;0.80;;;29.20;68.80;;;;;;7385136;19;20134;-78
2023/07/13 08:44:30;;;;;;;1.65;1.00;;;29.50;67.50;;;;;;7387905;19;20138;-78
2023/07/13 08:46:58;;;;;;;1.42;1.10;;;28.70;68.30;;;;;;7384483;19;20173;-79
2023/07/13 08:49:26;;;;;;;1.33;1.00;;;28.70;68.90;;;;;;7390616;19;20138;-79
2023/07/13 08:52:00;;;;;;;4.22;1.40;;;28.20;69.80;;;;;;7391557;19;20167;-78
2023/07/13 08:54:47;;;;;;;3.80;1.23;;;28.00;70.40;;;;;;7389196;19;20143;-78
2023/07/13 08:57:15;;;;;;;3.45;1.10;;;27.40;71.60;;;;;;7391861;19;20187;-79
2023/07/13 08:59:43;;;;;;;2.65;1.10;;;27.20;72.30;;;;;;7391284;19;20134;-79
2023/07/13 09:02:25;;;;;;;1.83;0.85;;;26.80;73.10;;;;;;7392889;19;20162;-78
2023/07/13 09:05:22;;;;;;;3.75;1.25;;;26.40;74.30;;;;;;7392419;19;20131;-78
2023/07/13 09:08:16;;;;;;;2.75;1.00;;;26.50;76.10;;;;;;7390612;19;20136;-79
2023/07/13 09:10:51;;;;;;;2.53;0.80;;;26.90;74.30;;;;;;7390419;19;20131;-77
2023/07/13 09:13:40;;;;;;;2.00;1.00;;;27.20;74.50;;;;;;7391860;19;20138;-78
2023/07/13 09:16:06;;;;;;;4.80;1.10;;;27.50;73.90;;;;;;7391230;19;20134;-79
2023/07/13 09:18:43;;;;;;;1.83;1.20;;;27.50;74.00;;;;;;7389141;19;20477;-79
2023/07/13 09:21:21;;;;;;;1.88;1.08;;;27.10;73.50;;;;;;7393732;19;20129;-77
2023/07/13 09:23:48;;;;;;;1.80;0.90;;;26.50;73.90;;;;;;7392388;19;20130;-76
2023/07/13 09:26:22;;;;;;;2.30;1.23;;;26.30;73.40;;;;;;7391142;19;20169;-76
2023/07/13 09:28:56;;;;;;;4.18;0.98;;;26.50;73.40;;;;;;7391240;19;20158;-77
2023/07/13 09:31:42;;;;;;;2.95;1.20;;;26.60;74.50;;;;;;7391691;19;20126;-77
2023/07/13 09:34:12;;;;;;;5.22;1.80;;;26.20;74.60;;;;;;7392053;19;20139;-77
2023/07/13 09:36:38;;;;;;;1.40;0.98;;;26.00;75.40;;;;;;7389619;19;20503;-76
2023/07/13 09:39:31;;;;;;;1.42;1.02;;;26.20;75.70;;;;;;7390723;19;20189;-78
2023/07/13 09:42:13;;;;;;;0.98;0.68;;;26.30;75.10;;;;;;7389670;19;20606;-77
2023/07/13 09:44:53;;;;;;;3.75;1.10;;;26.30;75.70;;;;;;7390265;19;20781;-79
2023/07/13 09:47:27;;;;;;;3.80;1.10;;;26.40;75.60;;;;;;7386934;19;20177;-77
2023/07/13 09:50:01;;;;;;;1.15;0.93;;;26.70;74.70;;;;;;7390579;19;20593;-77
2023/07/13 09:52:59;;;;;;;1.48;0.70;;;27.00;72.80;;;;;;7391964;19;20141;-78
2023/07/13 09:55:26;;;;;;;2.42;0.95;;;27.40;72.80;;;;;;7388497;19;20595;-79
2023/07/13 09:57:52;;;;;;;1.50;0.90;;;27.70;72.80;;;;;;7386011;19;20197;-79
2023/07/13 10:00:29;;;;;;;1.10;0.90;;;27.80;72.30;;;;;;7384613;19;20181;-79
2023/07/13 10:02:59;;;;;;;2.38;1.33;;;27.70;71.80;;;;;;7391094;19;20595;-81
2023/07/13 10:05:25;;;;;;;1.73;1.10;;;27.30;71.60;;;;;;7389595;19;20131;-76
2023/07/13 10:07:51;;;;;;;1.50;1.08;;;26.70;72.90;;;;;;7388201;19;20134;-78
2023/07/13 10:10:22;;;;;;;2.15;1.00;;;26.40;73.90;;;;;;7388532;19;20197;-76
2023/07/13 10:12:49;;;;;;;1.83;1.30;;;26.60;73.80;;;;;;7394816;19;20152;-76
2023/07/13 10:15:25;;;;;;;3.22;0.90;;;26.80;73.70;;;;;;7390024;19;20145;-78
2023/07/13 10:17:53;;;;;;;4.07;1.15;;;27.00;73.80;;;;;;7387882;19;20138;-78
2023/07/13 10:20:20;;;;;;;1.52;1.00;;;27.00;74.30;;;;;;7384955;19;20130;-77
2023/07/13 10:22:54;;;;;;;1.88;1.02;;;27.20;74.30;;;;;;7390742;19;20139;-77
2023/07/13 10:25:25;;;;;;;4.13;1.23;;;27.40;72.50;;;;;;7388632;19;20134;-78
2023/07/13 10:27:54;;;;;;;2.22;1.33;;;27.30;73.30;;;;;;7388813;19;20224;-79
2023/07/13 10:30:34;;;;;;;2.17;0.90;;;27.50;73.20;;;;;;7390176;19;20201;-78
2023/07/13 10:33:03;;;;;;;3.78;1.60;;;27.20;71.50;;;;;;7388588;19;20595;-79
2023/07/13 10:35:31;;;;;;;3.15;1.13;;;27.30;71.80;;;;;;7390270;19;20162;-78
2023/07/13 10:38:06;;;;;;;1.67;0.80;;;27.00;72.40;;;;;;7393390;19;20126;-81
2023/07/13 10:40:52;;;;;;;2.67;1.25;;;26.90;72.20;;;;;;7385371;19;20153;-79
2023/07/13 10:43:26;;;;;;;1.67;1.23;;;26.70;72.40;;;;;;7389139;19;20254;-78
2023/07/13 10:45:54;;;;;;;3.35;1.10;;;26.70;72.40;;;;;;7385650;19;20145;-79
2023/07/13 10:48:23;;;;;;;1.73;1.13;;;26.70;72.30;;;;;;7388172;19;20646;-80
2023/07/13 10:50:55;;;;;;;1.15;0.98;;;26.50;72.70;;;;;;7387628;19;20668;-77
2023/07/13 10:53:22;;;;;;;2.45;1.15;;;26.40;73.10;;;;;;7386701;19;20131;-81
2023/07/13 10:55:53;;;;;;;2.80;1.00;;;26.20;73.50;;;;;;7389725;19;20457;-80
2023/07/13 10:58:33;;;;;;;2.55;0.88;;;26.30;74.00;;;;;;7388841;19;20127;-81
2023/07/13 11:01:16;;;;;;;2.83;1.00;;;26.20;74.20;;;;;;7387430;19;20134;-73
2023/07/13 11:03:59;;;;;;;2.25;0.90;;;26.50;74.40;;;;;;7388934;19;20166;-74
2023/07/13 11:06:30;;;;;;;3.90;1.05;;;26.70;73.60;;;;;;7385085;19;20161;-79
2023/07/13 11:09:36;;;;;;;2.55;1.00;;;26.80;75.70;;;;;;7386204;19;20159;-80
2023/07/13 11:12:26;;;;;;;3.38;1.30;;;27.00;73.60;;;;;;7389016;19;20130;-78
2023/07/13 11:15:06;;;;;;;1.30;0.90;;;27.00;71.90;;;;;;7390219;19;20142;-76
2023/07/13 11:17:32;;;;;;;2.05;0.95;;;27.00;75.30;;;;;;7386403;19;20513;-77
2023/07/13 11:20:21;;;;;;;1.88;1.00;;;27.00;75.40;;;;;;7386763;19;20126;-77
2023/07/13 11:23:12;;;;;;;1.75;1.00;;;27.00;79.70;;;;;;7389648;19;20138;-77
2023/07/13 11:25:38;;;;;;;1.38;1.02;;;27.00;76.10;;;;;;7386277;19;20177;-76
2023/07/13 11:28:10;;;;;;;1.10;0.93;;;26.80;73.00;;;;;;7387758;19;20123;-77
2023/07/13 11:30:46;;;;;;;2.47;0.98;;;26.70;73.30;;;;;;7388846;19;20134;-78
2023/07/13 11:33:40;;;;;;;1.65;0.82;;;26.60;73.50;;;;;;7389795;19;20677;-78
2023/07/13 11:36:19;;;;;;;3.38;1.00;;;26.70;74.40;;;;;;7387776;19;20138;-77
2023/07/13 11:39:24;;;;;;;2.03;0.88;;;26.80;73.00;;;;;;7389362;19;20160;-79
2023/07/13 11:41:52;;;;;;;0.73;0.70;;;26.70;75.40;;;;;;7388295;19;20493;-79
2023/07/13 11:44:21;;;;;;;3.33;1.05;;;26.80;73.30;;;;;;7390324;19;20131;-77
2023/07/13 11:46:48;;;;;;;3.20;1.35;;;27.00;75.50;;;;;;7386171;19;20659;-77
2023/07/13 11:49:23;;;;;;;1.05;0.82;;;27.10;73.50;;;;;;7386851;19;20194;-78
2023/07/13 11:51:54;;;;;;;1.15;0.75;;;26.90;72.80;;;;;;7386433;19;20165;-79
2023/07/13 11:54:29;;;;;;;1.30;0.68;;;26.90;72.00;;;;;;7387320;19;20480;-76
2023/07/13 11:57:00;;;;;;;3.20;1.15;;;26.50;72.30;;;;;;7385399;19;20150;-77
2023/07/13 11:59:26;;;;;;;2.22;1.08;;;26.30;72.90;;;;;;7386319;19;20146;-75
2023/07/13 12:01:54;;;;;;;2.90;1.27;;;26.00;74.00;;;;;;7386410;19;20154;-78
2023/07/13 12:04:31;;;;;;;1.75;0.95;;;26.40;73.70;;;;;;7384266;19;20515;-76
2023/07/13 12:07:05;;;;;;;2.70;1.52;;;26.50;72.70;;;;;;7386315;19;20138;-79
2023/07/13 12:09:33;;;;;;;3.25;2.28;;;26.70;73.00;;;;;;7389112;19;20138;-78
2023/07/13 12:12:02;;;;;;;3.33;1.02;;;26.70;73.50;;;;;;7386005;19;20598;-77
2023/07/13 12:14:28;;;;;;;4.75;3.05;;;26.80;73.10;;;;;;7388799;19;20139;-78
2023/07/13 12:16:56;;;;;;;1.67;1.08;;;26.80;74.60;;;;;;7385766;19;20202;-77
2023/07/13 12:19:29;;;;;;;1.48;0.93;;;26.90;76.00;;;;;;7385994;19;20142;-76
2023/07/13 12:21:59;;;;;;;2.40;1.00;;;27.00;73.10;;;;;;7383224;19;20194;-77
2023/07/13 12:24:26;;;;;;;1.65;0.80;;;27.00;72.50;;;;;;7386107;19;20206;-76
2023/07/13 12:27:04;;;;;;;1.50;1.10;;;27.20;72.70;;;;;;7385651;19;20615;-79
2023/07/13 12:29:31;;;;;;;2.92;0.70;;;27.20;71.60;;;;;;7385714;19;20211;-74
2023/07/13 12:31:58;;;;;;;2.08;1.23;;;27.20;71.70;;;;;;7387130;19;20148;-76
2023/07/13 12:34:25;;;;;;;1.98;1.15;;;27.00;71.10;;;;;;7383488;19;20173;-75
2023/07/13 12:36:55;;;;;;;1.48;1.05;;;26.80;71.20;;;;;;7383890;19;20138;-75
2023/07/13 12:39:25;;;;;;;2.33;0.90;;;26.70;71.50;;;;;;7383202;19;20142;-75
2023/07/13 12:41:53;;;;;;;3.13;1.30;;;26.70;71.30;;;;;;7384290;19;20163;-75
2023/07/13 12:44:28;;;;;;;3.15;1.13;;;26.70;71.50;;;;;;7383518;19;20485;-75
2023/07/13 12:46:57;;;;;;;2.40;0.98;;;26.80;71.10;;;;;;7384783;19;20146;-76
2023/07/13 12:49:29;;;;;;;1.58;0.93;;;26.90;71.40;;;;;;7387386;19;20134;-75
2023/07/13 12:52:00;;;;;;;3.58;1.20;;;27.20;69.90;;;;;;7385243;19;20142;-74
2023/07/13 12:54:28;;;;;;;2.90;1.30;;;27.30;71.00;;;;;;7384997;19;20126;-75
2023/07/13 12:56:58;;;;;;;2.17;1.10;;;27.30;70.20;;;;;;7385900;19;20150;-75